Ana Sayfa
METAR-TAF:

METAR-TAF

Havaalanları :

Minna, Nijerya

Enlem: 9-37N, Boylam: 6-32E, yükseklik: 260 m

Güncel hava durumu gözlemi

Rapor saat 16:00 UTC de 5 saat ve 49 dakika önce yapıldı.
Rüzgar güney/güneydoğudan 10 kt
Sıcaklık 30°C
Nem 70%
Basınç 1006 hPa
Görüş mesafesi 10 km veya daha fazla
1200 ft yükseklikte parçalı bulutlu
2000 ft yükseklikte az bulutlu, Kümülonimbus.

METAR: DNMN 241600Z 15010KT 9999 SCT012 FEW020CB 30/24 Q1006

Saat: 22:49 (21:49 UTC)

Tahmin

Rapor saat 15:50 UTC de 5 saat ve 59 dakika önce yapıldı.
Ayın 24'si saat 18 UTC'den ayın 25'si saat 24 UTC'ye kadar geçerli Tahmin
Rüzgar doğu/güneydoğudan 6 kt
Görüş mesafesi 10 km veya daha fazla
1100 ft yükseklikte parçalı bulutlu
Dönüşüyor
ayın 25'si saat 08 UTC'den ayın 25'si saat 11 UTC'ye kadar
Rüzgar güneybatıdan 10 kt
1200 ft yükseklikte parçalı çok bulutlu

TAF: DNMN 241550Z 2418/2524 12006KT 9999 SCT011 BECMG 2508/2511 23010KT BKN012

4.000'den fazla havaalanı için hava durumu gözlemleri ve tahminleri (METAR ve TAF raporları).

Kullanılabilir istasyonlar harita üzerinde sarı ve kırmızı noktalarla gösterilir.

İstasyonun adını görmek için fareyi noktanın üzerinde gezdirin.

Sonrasında hava gözlem ve tahminlerini görmek için tıklayın.

Haritayı değiştirmek için: yaklaştırmak için siyah artı işaretli yeşil düğmeye ve uzaklaştırmak için de eksi işaretli düğmeye hızla tıklayın; bitişik haritalar için yeşil okları kullanın.


METAR-TAF: